Time;durP1;ratioP1;P1;durP2;ratioP2;P2;SDS_P1;SDS_P2;PMS_P1;PMS_P2;Temp;Humidity;BMP_temperature;BMP_pressure;BME280_temperature;BME280_humidity;BME280_pressure;Samples;Min_cycle;Max_cycle;Signal;HPM_P1;HPM_P2
2023/03/09 00:00:31;;;;;;;3.13;1.20;;;10.70;97.90;;;;;;5028864;28;20324;-65
2023/03/09 00:02:57;;;;;;;3.33;1.10;;;10.80;97.60;;;;;;5034103;28;20045;-66
2023/03/09 00:05:26;;;;;;;3.17;1.25;;;10.90;97.30;;;;;;5019284;28;20079;-67
2023/03/09 00:07:54;;;;;;;2.95;1.17;;;11.00;97.10;;;;;;5033430;28;20091;-67
2023/03/09 00:10:20;;;;;;;2.65;1.10;;;10.90;97.40;;;;;;5019482;28;20029;-66
2023/03/09 00:12:45;;;;;;;3.35;1.30;;;11.00;97.20;;;;;;5015912;28;20034;-67
2023/03/09 00:15:11;;;;;;;3.53;1.35;;;10.90;97.30;;;;;;5032551;28;20036;-67
2023/03/09 00:17:37;;;;;;;2.67;1.10;;;10.90;97.20;;;;;;5023767;28;20063;-68
2023/03/09 00:20:17;;;;;;;3.17;1.10;;;10.90;97.10;;;;;;5034373;28;20038;-67
2023/03/09 00:22:53;;;;;;;2.45;0.90;;;11.00;96.80;;;;;;5037991;28;20021;-66
2023/03/09 00:25:21;;;;;;;3.67;1.10;;;11.10;96.30;;;;;;5052286;28;20021;-67
2023/03/09 00:27:48;;;;;;;4.38;1.10;;;11.20;96.40;;;;;;5037055;28;20029;-67
2023/03/09 00:30:15;;;;;;;3.67;1.08;;;11.20;96.00;;;;;;5037241;28;20033;-67
2023/03/09 00:32:41;;;;;;;3.33;0.98;;;11.20;96.10;;;;;;5041587;28;20078;-67
2023/03/09 00:35:08;;;;;;;1.83;0.90;;;11.20;96.10;;;;;;5035880;28;20418;-66
2023/03/09 00:37:34;;;;;;;2.13;1.05;;;11.20;96.30;;;;;;5048435;28;20056;-65
2023/03/09 00:40:00;;;;;;;3.10;1.10;;;11.10;96.30;;;;;;5040981;28;20287;-66
2023/03/09 00:42:29;;;;;;;2.90;1.10;;;11.10;96.50;;;;;;5034065;28;20029;-66
2023/03/09 00:44:55;;;;;;;3.85;1.20;;;11.10;96.30;;;;;;5023783;28;20053;-65
2023/03/09 00:47:20;;;;;;;2.22;1.00;;;11.00;97.10;;;;;;5031356;28;20407;-66
2023/03/09 00:49:46;;;;;;;6.72;1.63;;;10.80;97.20;;;;;;5032167;28;20117;-67
2023/03/09 00:52:11;;;;;;;11.02;1.85;;;10.40;96.90;;;;;;5030750;28;20392;-69
2023/03/09 00:54:37;;;;;;;6.13;1.50;;;8.70;95.30;;;;;;5036336;28;20017;-71
2023/03/09 00:57:03;;;;;;;5.10;1.38;;;7.60;89.90;;;;;;5031226;28;20479;-69
2023/03/09 00:59:28;;;;;;;3.40;1.20;;;7.10;87.00;;;;;;5044898;28;20342;-69
2023/03/09 01:01:54;;;;;;;4.18;1.10;;;6.90;84.00;;;;;;5027149;28;20036;-69
2023/03/09 01:04:20;;;;;;;3.08;1.10;;;7.00;84.30;;;;;;5039336;28;20068;-69
2023/03/09 01:06:45;;;;;;;3.00;1.08;;;7.00;82.40;;;;;;5034089;28;20033;-68
2023/03/09 01:09:11;;;;;;;1.73;0.85;;;7.10;81.90;;;;;;5030128;28;20091;-67
2023/03/09 01:11:37;;;;;;;3.80;1.08;;;7.20;83.20;;;;;;5035784;28;20060;-69
2023/03/09 01:14:02;;;;;;;4.18;1.70;;;7.30;82.10;;;;;;5024024;28;20041;-69
2023/03/09 01:16:28;;;;;;;7.70;2.10;;;7.30;79.80;;;;;;5018047;28;20034;-68
2023/03/09 01:18:53;;;;;;;5.80;2.13;;;7.20;80.30;;;;;;5017375;28;20038;-69
2023/03/09 01:21:19;;;;;;;4.88;1.52;;;7.20;79.40;;;;;;5022511;28;20032;-69
2023/03/09 01:23:45;;;;;;;3.30;1.45;;;7.10;80.00;;;;;;5034156;28;20092;-68
2023/03/09 01:26:10;;;;;;;4.28;1.77;;;7.10;79.50;;;;;;5030018;28;20084;-69
2023/03/09 01:28:36;;;;;;;2.13;1.00;;;7.00;78.20;;;;;;5042378;28;20026;-69
2023/03/09 01:31:13;;;;;;;3.20;1.20;;;7.00;77.20;;;;;;5042424;28;20031;-69
2023/03/09 01:33:39;;;;;;;1.65;0.95;;;6.90;76.20;;;;;;5051173;28;20033;-69
2023/03/09 01:36:13;;;;;;;2.63;1.13;;;6.80;74.90;;;;;;5035547;28;20037;-69
2023/03/09 01:38:39;;;;;;;;;;;6.80;73.60;;;;;;5031781;28;20382;-69
2023/03/09 01:41:05;;;;;;;2.60;1.00;;;6.80;72.50;;;;;;5035058;28;19927;-68
2023/03/09 01:43:39;;;;;;;4.95;0.85;;;6.80;73.80;;;;;;5033434;28;20029;-69
2023/03/09 01:46:20;;;;;;;6.00;0.90;;;6.80;75.60;;;;;;5032136;28;20053;-69
2023/03/09 01:49:05;;;;;;;1.63;0.90;;;6.80;76.50;;;;;;5029956;28;20030;-69
2023/03/09 01:51:37;;;;;;;3.15;1.10;;;6.80;76.70;;;;;;5033699;28;20033;-69
2023/03/09 01:54:05;;;;;;;1.65;0.80;;;6.70;76.80;;;;;;5025578;28;20055;-68
2023/03/09 01:56:31;;;;;;;3.40;1.10;;;6.70;76.90;;;;;;5033441;28;20052;-69
2023/03/09 01:58:59;;;;;;;3.10;1.02;;;6.60;77.10;;;;;;5031014;28;20094;-70
2023/03/09 02:01:25;;;;;;;2.45;1.00;;;6.60;76.90;;;;;;5033366;28;20037;-69
2023/03/09 02:03:56;;;;;;;5.55;1.20;;;6.60;77.10;;;;;;5025348;28;20030;-69
2023/03/09 02:06:23;;;;;;;3.67;1.25;;;6.60;77.00;;;;;;5023049;28;20044;-69
2023/03/09 02:09:07;;;;;;;3.28;1.48;;;6.60;76.60;;;;;;5033580;28;20060;-70
2023/03/09 02:11:33;;;;;;;2.53;1.10;;;6.60;74.10;;;;;;5043063;28;20075;-70
2023/03/09 02:14:00;;;;;;;2.75;1.15;;;6.60;71.80;;;;;;5019483;28;20033;-70
2023/03/09 02:16:25;;;;;;;3.00;1.27;;;6.60;72.10;;;;;;5025276;28;20025;-69
2023/03/09 02:18:52;;;;;;;3.47;1.00;;;6.60;72.50;;;;;;5029565;28;20032;-70
2023/03/09 02:21:37;;;;;;;2.08;1.00;;;6.60;71.00;;;;;;5033680;28;20017;-70
2023/03/09 02:24:21;;;;;;;;;;;6.50;70.90;;;;;;5022936;28;20022;-69
2023/03/09 02:26:54;;;;;;;2.10;1.10;;;6.50;70.00;;;;;;5050629;28;19909;-69
2023/03/09 02:29:20;;;;;;;2.25;0.90;;;6.50;69.40;;;;;;5034400;28;20028;-69
2023/03/09 02:31:46;;;;;;;3.38;1.58;;;6.50;69.60;;;;;;5025276;28;20030;-69
2023/03/09 02:34:12;;;;;;;0.85;0.70;;;6.50;71.10;;;;;;5021895;28;20088;-69
2023/03/09 02:36:38;;;;;;;2.45;0.88;;;6.50;71.50;;;;;;5037335;28;20061;-68
2023/03/09 02:39:38;;;;;;;3.33;1.23;;;6.50;73.50;;;;;;5030273;28;20032;-68
2023/03/09 02:42:05;;;;;;;1.08;0.68;;;6.50;76.40;;;;;;5027491;28;20049;-68
2023/03/09 02:44:32;;;;;;;1.63;1.00;;;6.70;82.30;;;;;;5035656;28;20327;-68
2023/03/09 02:47:07;;;;;;;2.55;0.90;;;6.70;82.60;;;;;;5032691;28;20032;-69
2023/03/09 02:49:36;;;;;;;1.02;0.80;;;6.70;83.00;;;;;;5030782;28;20453;-68
2023/03/09 02:52:01;;;;;;;4.40;1.20;;;6.80;83.40;;;;;;5027960;28;20091;-68
2023/03/09 02:54:27;;;;;;;1.10;0.70;;;6.90;84.30;;;;;;5025513;28;20296;-68
2023/03/09 02:56:55;;;;;;;2.38;1.20;;;7.00;87.00;;;;;;5034392;28;20415;-67
2023/03/09 02:59:21;;;;;;;1.50;1.10;;;7.30;88.10;;;;;;5029048;28;20065;-67
2023/03/09 03:01:46;;;;;;;2.28;0.80;;;7.40;90.70;;;;;;5019051;28;20064;-68
2023/03/09 03:04:12;;;;;;;2.42;1.02;;;7.60;92.30;;;;;;5021925;28;20430;-68
2023/03/09 03:06:39;;;;;;;2.00;0.90;;;7.70;92.70;;;;;;5029716;28;20033;-68
2023/03/09 03:09:05;;;;;;;2.28;0.85;;;7.70;93.10;;;;;;5034369;28;20018;-68
2023/03/09 03:11:31;;;;;;;2.90;0.95;;;7.70;92.20;;;;;;5017516;28;20036;-68
2023/03/09 03:13:57;;;;;;;4.10;1.42;;;7.70;90.90;;;;;;5029936;28;20028;-67
2023/03/09 03:16:22;;;;;;;2.90;1.00;;;7.60;90.30;;;;;;5026658;28;20330;-67
2023/03/09 03:18:48;;;;;;;3.67;1.08;;;7.60;89.40;;;;;;5027543;28;20036;-67
2023/03/09 03:21:13;;;;;;;4.18;1.20;;;7.50;88.50;;;;;;5028807;28;20028;-67
2023/03/09 03:23:39;;;;;;;3.25;1.15;;;7.50;88.40;;;;;;5032121;28;20025;-67
2023/03/09 03:26:09;;;;;;;3.97;1.40;;;7.50;87.40;;;;;;5028349;28;20084;-67
2023/03/09 03:28:35;;;;;;;5.72;1.35;;;7.50;86.00;;;;;;5021102;28;20025;-67
2023/03/09 03:31:00;;;;;;;4.45;1.55;;;7.50;84.50;;;;;;5032797;28;20029;-68
2023/03/09 03:33:27;;;;;;;2.38;1.20;;;7.60;85.90;;;;;;5027747;28;20037;-68
2023/03/09 03:35:52;;;;;;;4.15;1.50;;;7.70;85.40;;;;;;5026832;28;20030;-68
2023/03/09 03:38:18;;;;;;;6.22;1.60;;;7.70;84.90;;;;;;5039615;28;20150;-67
2023/03/09 03:40:43;;;;;;;2.95;1.20;;;7.70;85.30;;;;;;5035511;28;20029;-67
2023/03/09 03:43:09;;;;;;;3.30;1.40;;;7.80;85.60;;;;;;5019011;28;20018;-66
2023/03/09 03:45:34;;;;;;;5.00;1.33;;;7.80;84.70;;;;;;5041466;28;20025;-66
2023/03/09 03:48:00;;;;;;;3.33;1.40;;;7.80;84.80;;;;;;5021786;28;20014;-67
2023/03/09 03:50:26;;;;;;;5.22;1.30;;;7.80;83.90;;;;;;5020781;28;20038;-67
2023/03/09 03:52:51;;;;;;;4.50;1.20;;;7.70;82.50;;;;;;5030977;28;20036;-67
2023/03/09 03:55:17;;;;;;;5.35;1.65;;;7.60;81.00;;;;;;5031717;28;20103;-67
2023/03/09 03:57:42;;;;;;;5.05;1.48;;;7.60;78.50;;;;;;5025582;28;20025;-67
2023/03/09 04:00:10;;;;;;;4.93;1.35;;;7.50;77.60;;;;;;5033233;28;20049;-68
2023/03/09 04:02:37;;;;;;;5.90;1.27;;;7.60;80.00;;;;;;5030410;28;20017;-67
2023/03/09 04:05:03;;;;;;;5.90;2.10;;;7.60;78.00;;;;;;5028597;28;20153;-68
2023/03/09 04:07:28;;;;;;;7.05;2.00;;;7.50;75.50;;;;;;5023980;28;20017;-68
2023/03/09 04:09:54;;;;;;;4.90;1.48;;;7.50;72.40;;;;;;5034382;28;20034;-68
2023/03/09 04:12:19;;;;;;;5.95;1.63;;;7.40;70.70;;;;;;5028445;28;20025;-67
2023/03/09 04:14:45;;;;;;;4.00;1.40;;;7.40;70.70;;;;;;5020139;28;20307;-68
2023/03/09 04:17:10;;;;;;;3.80;1.58;;;7.30;71.60;;;;;;5015969;28;20193;-67
2023/03/09 04:19:36;;;;;;;3.80;1.27;;;7.30;79.10;;;;;;5030155;28;20057;-67
2023/03/09 04:22:02;;;;;;;7.03;1.90;;;7.30;81.00;;;;;;5031033;28;20040;-67
2023/03/09 04:24:28;;;;;;;3.67;1.50;;;7.30;81.30;;;;;;5034322;28;20432;-67
2023/03/09 04:26:53;;;;;;;4.07;1.50;;;7.30;80.90;;;;;;5025097;28;20045;-67
2023/03/09 04:29:19;;;;;;;7.53;1.70;;;7.20;80.30;;;;;;5029596;28;20334;-67
2023/03/09 04:31:44;;;;;;;6.90;1.80;;;7.20;80.60;;;;;;5019901;28;20107;-67
2023/03/09 04:34:11;;;;;;;4.80;1.45;;;7.20;80.00;;;;;;5027369;28;20028;-67
2023/03/09 04:36:37;;;;;;;6.47;1.40;;;7.20;81.20;;;;;;5037221;28;20025;-67
2023/03/09 04:39:06;;;;;;;4.10;1.63;;;7.10;82.40;;;;;;5032807;28;20026;-67
2023/03/09 04:41:32;;;;;;;6.88;1.73;;;7.10;83.20;;;;;;5031673;28;20030;-66
2023/03/09 04:43:58;;;;;;;6.03;2.00;;;7.10;83.00;;;;;;5019762;28;20337;-67
2023/03/09 04:46:23;;;;;;;5.80;1.85;;;7.00;82.50;;;;;;5029713;28;20030;-67
2023/03/09 04:48:49;;;;;;;7.45;3.60;;;7.10;83.80;;;;;;5034766;28;20034;-67
2023/03/09 04:51:14;;;;;;;9.00;2.35;;;7.00;83.50;;;;;;5029559;28;20105;-66
2023/03/09 04:53:40;;;;;;;7.10;1.80;;;7.00;83.60;;;;;;5029839;28;20078;-67
2023/03/09 04:56:09;;;;;;;11.43;2.47;;;7.00;85.60;;;;;;5035340;28;20055;-67
2023/03/09 04:58:34;;;;;;;9.70;2.42;;;7.00;84.70;;;;;;5035533;28;20108;-67
2023/03/09 05:01:01;;;;;;;10.63;2.47;;;7.00;85.80;;;;;;5024869;28;20180;-67
2023/03/09 05:03:27;;;;;;;8.00;2.85;;;7.10;87.00;;;;;;5019618;28;20026;-67
2023/03/09 05:05:53;;;;;;;14.73;4.32;;;7.00;85.60;;;;;;5033778;28;20017;-66
2023/03/09 05:08:18;;;;;;;12.43;2.83;;;7.00;85.60;;;;;;5025901;28;20069;-66
2023/03/09 05:10:44;;;;;;;10.13;2.95;;;6.90;86.40;;;;;;5032773;28;20029;-67
2023/03/09 05:13:10;;;;;;;10.95;2.67;;;6.90;85.50;;;;;;5020810;28;20037;-66
2023/03/09 05:15:39;;;;;;;10.43;2.80;;;6.80;85.20;;;;;;5018839;28;20044;-66
2023/03/09 05:18:04;;;;;;;6.43;2.28;;;6.80;85.40;;;;;;5020388;28;20116;-66
2023/03/09 05:20:31;;;;;;;10.32;3.50;;;6.80;84.80;;;;;;5037336;28;20393;-66
2023/03/09 05:22:57;;;;;;;11.73;2.40;;;6.70;84.10;;;;;;5036741;28;20087;-66
2023/03/09 05:25:22;;;;;;;11.75;3.00;;;6.70;83.10;;;;;;5035312;28;20411;-66
2023/03/09 05:27:49;;;;;;;12.75;3.50;;;6.60;82.90;;;;;;5035741;28;20022;-66
2023/03/09 05:30:15;;;;;;;12.98;3.67;;;6.60;82.40;;;;;;5036271;28;20087;-66
2023/03/09 05:32:40;;;;;;;11.93;2.60;;;6.60;82.50;;;;;;5028751;28;20064;-67
2023/03/09 05:35:06;;;;;;;10.77;2.38;;;6.60;82.70;;;;;;5041239;28;20053;-66
2023/03/09 05:37:33;;;;;;;9.23;2.15;;;6.70;84.20;;;;;;5034288;28;20029;-66
2023/03/09 05:39:58;;;;;;;12.20;2.75;;;6.70;84.80;;;;;;5036159;28;20078;-66
2023/03/09 05:42:24;;;;;;;13.82;3.05;;;6.70;84.60;;;;;;5017744;28;20026;-66
2023/03/09 05:44:50;;;;;;;10.35;2.17;;;6.80;84.80;;;;;;5021749;28;20018;-66
2023/03/09 05:47:16;;;;;;;11.90;2.22;;;6.80;84.50;;;;;;5037392;28;20044;-66
2023/03/09 05:49:41;;;;;;;9.73;1.73;;;6.90;85.60;;;;;;5036607;28;20021;-66
2023/03/09 05:52:07;;;;;;;6.25;2.03;;;7.00;86.80;;;;;;5027595;28;20413;-66
2023/03/09 05:54:35;;;;;;;8.52;2.28;;;7.00;86.00;;;;;;5036513;28;20033;-68
2023/03/09 05:57:01;;;;;;;7.65;2.10;;;7.10;87.30;;;;;;5029270;28;20037;-68
2023/03/09 05:59:26;;;;;;;9.48;2.10;;;7.10;87.60;;;;;;5043147;28;20045;-67
2023/03/09 06:01:52;;;;;;;10.10;2.42;;;7.10;89.60;;;;;;5029747;28;20030;-67
2023/03/09 06:04:17;;;;;;;7.80;2.10;;;7.10;88.70;;;;;;5025859;28;20163;-67
2023/03/09 06:06:43;;;;;;;9.60;2.10;;;7.00;88.30;;;;;;5017577;28;20033;-67
2023/03/09 06:09:09;;;;;;;10.10;2.55;;;7.00;88.10;;;;;;5029619;28;20119;-67
2023/03/09 06:11:34;;;;;;;9.68;2.33;;;6.90;88.70;;;;;;5016951;28;20305;-66
2023/03/09 06:14:00;;;;;;;9.38;2.63;;;6.90;88.50;;;;;;5024562;28;20049;-67
2023/03/09 06:16:26;;;;;;;14.73;2.92;;;7.00;89.00;;;;;;5016980;28;20374;-67
2023/03/09 06:18:55;;;;;;;10.10;2.17;;;7.00;88.90;;;;;;5032250;28;20164;-66
2023/03/09 06:21:21;;;;;;;8.90;2.25;;;6.90;88.40;;;;;;5031850;28;20116;-66
2023/03/09 06:23:46;;;;;;;13.85;2.95;;;7.00;88.70;;;;;;5030824;28;20057;-66
2023/03/09 06:26:13;;;;;;;8.18;2.58;;;7.00;90.10;;;;;;5026443;28;20029;-66
2023/03/09 06:28:39;;;;;;;10.02;3.15;;;7.10;90.00;;;;;;5025606;28;20105;-66
2023/03/09 06:31:06;;;;;;;11.32;2.67;;;7.10;89.70;;;;;;5036022;28;20021;-66
2023/03/09 06:33:32;;;;;;;8.30;2.58;;;7.10;90.50;;;;;;5019875;28;20033;-66
2023/03/09 06:36:01;;;;;;;9.32;2.40;;;7.10;91.20;;;;;;5023023;28;20311;-66
2023/03/09 06:38:26;;;;;;;11.20;2.88;;;7.30;92.90;;;;;;5034202;28;20322;-66
2023/03/09 06:40:58;;;;;;;12.40;4.20;;;7.30;93.90;;;;;;5028100;28;20022;-66
2023/03/09 06:43:23;;;;;;;9.05;2.47;;;7.50;95.40;;;;;;5022144;28;20108;-66
2023/03/09 06:45:49;;;;;;;9.90;2.90;;;7.60;96.70;;;;;;5035653;28;20104;-66
2023/03/09 06:48:15;;;;;;;11.20;3.33;;;7.70;97.00;;;;;;5031430;28;20026;-66
2023/03/09 06:50:41;;;;;;;9.68;2.33;;;7.70;96.60;;;;;;5027059;28;20292;-66
2023/03/09 06:53:06;;;;;;;8.43;2.25;;;7.80;97.00;;;;;;5025873;28;20029;-66
2023/03/09 06:55:32;;;;;;;12.32;3.22;;;7.80;96.50;;;;;;5035972;28;20112;-66
2023/03/09 06:57:57;;;;;;;10.60;3.20;;;7.70;96.90;;;;;;5026955;28;20026;-66
2023/03/09 07:00:23;;;;;;;10.02;2.38;;;7.70;97.60;;;;;;5023148;28;20099;-66
2023/03/09 07:02:49;;;;;;;7.30;2.85;;;7.70;96.70;;;;;;5027512;28;20446;-66
2023/03/09 07:05:14;;;;;;;8.02;2.13;;;7.70;96.80;;;;;;5029896;28;20017;-66
2023/03/09 07:07:42;;;;;;;10.40;3.72;;;7.70;97.90;;;;;;5034377;28;20040;-66
2023/03/09 07:10:09;;;;;;;11.88;2.60;;;7.70;96.90;;;;;;5048652;28;20021;-66
2023/03/09 07:12:34;;;;;;;9.95;2.53;;;7.60;97.80;;;;;;5046455;28;20469;-66
2023/03/09 07:15:00;;;;;;;7.78;2.42;;;7.70;98.00;;;;;;5019847;28;20103;-66
2023/03/09 07:17:26;;;;;;;12.20;2.50;;;7.70;97.90;;;;;;5035926;28;20334;-66
2023/03/09 07:19:52;;;;;;;12.57;1.90;;;7.60;98.00;;;;;;5025875;28;20403;-66
2023/03/09 07:22:18;;;;;;;10.93;3.15;;;7.60;98.00;;;;;;5027022;28;20096;-66
2023/03/09 07:24:44;;;;;;;10.65;2.22;;;7.60;98.00;;;;;;5037172;28;20021;-66
2023/03/09 07:27:10;;;;;;;10.85;2.50;;;7.70;98.00;;;;;;5021347;28;20111;-66
2023/03/09 07:29:35;;;;;;;9.57;2.53;;;7.80;98.00;;;;;;5029900;28;20033;-66
2023/03/09 07:32:02;;;;;;;9.07;2.17;;;8.20;98.00;;;;;;5026542;28;20037;-66
2023/03/09 07:34:28;;;;;;;7.40;2.00;;;8.30;98.00;;;;;;5026341;28;20041;-66
2023/03/09 07:36:53;;;;;;;7.70;2.35;;;8.40;98.00;;;;;;5027966;28;20026;-66
2023/03/09 07:39:19;;;;;;;9.35;1.83;;;8.50;98.00;;;;;;5028088;28;20056;-66
2023/03/09 07:41:45;;;;;;;8.00;2.53;;;8.50;98.00;;;;;;5014654;28;20049;-66
2023/03/09 07:44:10;;;;;;;7.57;2.15;;;8.40;98.00;;;;;;5020620;28;20018;-66
2023/03/09 07:46:36;;;;;;;6.80;2.22;;;8.50;98.00;;;;;;5035720;28;20033;-66
2023/03/09 07:49:02;;;;;;;10.05;2.50;;;8.60;98.00;;;;;;5032700;28;20029;-66
2023/03/09 07:51:31;;;;;;;7.20;1.88;;;8.60;98.00;;;;;;5016108;28;20105;-66
2023/03/09 07:53:57;;;;;;;11.07;1.80;;;8.70;98.00;;;;;;5016276;28;20034;-66
2023/03/09 07:56:23;;;;;;;10.70;2.22;;;8.80;98.00;;;;;;5034108;28;20045;-66
2023/03/09 07:58:51;;;;;;;5.72;1.65;;;8.90;97.50;;;;;;5032448;28;20116;-66
2023/03/09 08:01:18;;;;;;;12.82;2.80;;;8.90;97.10;;;;;;5015903;28;20029;-66
2023/03/09 08:03:45;;;;;;;7.65;2.05;;;9.00;97.30;;;;;;5021825;28;20194;-66
2023/03/09 08:06:11;;;;;;;5.88;1.58;;;9.20;97.40;;;;;;5027794;28;20018;-66
2023/03/09 08:08:37;;;;;;;8.48;2.03;;;9.30;96.60;;;;;;5018952;28;20148;-66
2023/03/09 08:11:03;;;;;;;7.25;1.80;;;9.50;96.20;;;;;;5019482;28;20061;-66
2023/03/09 08:13:29;;;;;;;13.90;2.25;;;9.60;95.20;;;;;;5018844;28;20030;-66
2023/03/09 08:15:58;;;;;;;7.47;1.77;;;9.80;95.40;;;;;;5038759;28;20037;-66
2023/03/09 08:18:24;;;;;;;8.38;1.83;;;9.80;95.00;;;;;;5033585;28;20124;-66
2023/03/09 08:20:49;;;;;;;9.70;2.00;;;9.70;95.90;;;;;;5019528;28;20041;-66
2023/03/09 08:23:15;;;;;;;8.82;1.90;;;9.80;95.60;;;;;;5029423;28;20044;-66
2023/03/09 08:25:41;;;;;;;11.52;2.85;;;10.10;95.30;;;;;;5035406;28;20029;-66
2023/03/09 08:28:06;;;;;;;8.57;2.75;;;10.30;94.30;;;;;;5018588;28;20021;-66
2023/03/09 08:30:32;;;;;;;7.57;2.53;;;11.00;93.30;;;;;;5019142;28;20051;-66
2023/03/09 08:32:58;;;;;;;6.35;1.90;;;11.30;92.70;;;;;;5026278;28;20022;-66
2023/03/09 08:35:27;;;;;;;7.43;1.70;;;10.70;91.90;;;;;;5024492;28;20042;-66
2023/03/09 08:37:53;;;;;;;8.15;2.25;;;10.10;93.70;;;;;;5031940;28;20036;-66
2023/03/09 08:40:19;;;;;;;7.47;1.42;;;9.90;94.60;;;;;;5037242;28;20033;-66
2023/03/09 08:42:44;;;;;;;8.07;2.03;;;9.70;94.90;;;;;;5021603;28;20080;-65
2023/03/09 08:45:11;;;;;;;4.35;1.38;;;9.60;95.40;;;;;;5019491;28;20030;-65
2023/03/09 08:47:37;;;;;;;6.60;1.80;;;9.60;95.60;;;;;;5018947;28;20033;-65
2023/03/09 08:50:04;;;;;;;8.85;1.80;;;9.60;95.50;;;;;;5027676;28;20026;-68
2023/03/09 08:52:36;;;;;;;5.60;2.42;;;9.70;95.30;;;;;;5018993;28;20029;-68
2023/03/09 08:55:03;;;;;;;7.10;1.92;;;9.80;95.40;;;;;;5029120;28;20019;-67
2023/03/09 08:57:29;;;;;;;6.45;1.90;;;10.20;94.40;;;;;;5037904;28;20037;-67
2023/03/09 08:59:54;;;;;;;5.63;1.92;;;10.20;94.00;;;;;;5036199;28;20053;-67
2023/03/09 09:02:20;;;;;;;4.78;1.80;;;10.10;94.10;;;;;;5035255;28;20029;-67
2023/03/09 09:04:46;;;;;;;5.13;1.45;;;9.90;94.50;;;;;;5038579;28;20029;-66
2023/03/09 09:07:12;;;;;;;4.30;1.33;;;9.70;95.40;;;;;;5030920;28;20445;-66
2023/03/09 09:09:41;;;;;;;3.78;1.10;;;9.50;95.30;;;;;;5023858;28;20030;-67
2023/03/09 09:12:10;;;;;;;5.85;1.50;;;9.40;95.60;;;;;;5036089;28;20033;-66
2023/03/09 09:14:38;;;;;;;6.15;1.73;;;9.40;95.50;;;;;;5038157;28;20025;-66
2023/03/09 09:17:06;;;;;;;6.32;1.67;;;9.40;95.90;;;;;;5037563;28;20032;-66
2023/03/09 09:19:32;;;;;;;5.55;1.48;;;9.40;96.00;;;;;;5029811;28;20042;-66
2023/03/09 09:21:59;;;;;;;6.38;1.52;;;9.60;95.80;;;;;;5037680;28;20037;-66
2023/03/09 09:24:25;;;;;;;4.55;1.45;;;9.50;95.70;;;;;;5037597;28;20033;-66
2023/03/09 09:26:54;;;;;;;5.90;1.40;;;9.60;95.70;;;;;;5046228;28;20067;-66
2023/03/09 09:29:20;;;;;;;5.22;1.30;;;9.80;95.80;;;;;;5037397;28;20025;-66
2023/03/09 09:31:48;;;;;;;6.85;1.70;;;10.00;95.10;;;;;;5038937;28;20111;-66
2023/03/09 09:34:13;;;;;;;5.60;1.63;;;10.20;94.50;;;;;;5021080;28;20164;-66
2023/03/09 09:36:39;;;;;;;5.93;1.67;;;10.60;92.80;;;;;;5018995;28;20116;-66
2023/03/09 09:39:05;;;;;;;4.15;1.33;;;11.00;91.00;;;;;;5017974;28;20034;-66
2023/03/09 09:41:38;;;;;;;7.65;1.73;;;11.20;92.30;;;;;;5019017;28;20312;-66
2023/03/09 09:44:09;;;;;;;35.97;10.00;;;11.10;90.60;;;;;;5038299;28;20095;-66
2023/03/09 09:46:36;;;;;;;37.10;13.65;;;11.10;90.90;;;;;;5027854;28;20026;-66
2023/03/09 09:49:03;;;;;;;23.88;9.45;;;10.90;91.00;;;;;;5032570;28;20025;-66
2023/03/09 09:52:06;;;;;;;13.48;4.68;;;10.70;91.80;;;;;;5020128;28;20473;-66
2023/03/09 09:55:13;;;;;;;6.82;2.30;;;10.50;91.30;;;;;;5017697;28;20029;-66
2023/03/09 09:57:41;;;;;;;7.25;2.17;;;11.60;89.50;;;;;;5033049;28;20092;-66
2023/03/09 10:00:31;;;;;;;5.47;1.30;;;12.50;87.00;;;;;;5020041;28;20042;-66
2023/03/09 10:03:14;;;;;;;7.78;1.83;;;11.90;86.90;;;;;;5038392;28;20117;-66
2023/03/09 10:06:04;;;;;;;11.05;3.25;;;11.70;87.80;;;;;;5035485;28;20024;-66
2023/03/09 10:08:53;;;;;;;4.43;1.73;;;11.70;87.50;;;;;;5017399;28;20026;-66
2023/03/09 10:11:34;;;;;;;8.40;2.00;;;11.90;87.00;;;;;;5019678;28;20442;-66
2023/03/09 10:14:15;;;;;;;4.93;1.58;;;11.90;88.00;;;;;;5017289;28;20040;-66
2023/03/09 10:16:59;;;;;;;5.20;1.25;;;12.20;87.00;;;;;;5017740;28;20061;-66
2023/03/09 10:19:38;;;;;;;7.63;1.73;;;12.80;85.90;;;;;;5023362;28;20022;-65
2023/03/09 10:22:12;;;;;;;5.03;1.90;;;12.40;84.60;;;;;;5035229;28;20091;-66
2023/03/09 10:24:43;;;;;;;6.18;1.83;;;12.30;85.70;;;;;;5035486;28;20308;-66
2023/03/09 10:27:23;;;;;;;8.05;2.08;;;12.40;84.70;;;;;;5022844;28;20026;-66
2023/03/09 10:30:21;;;;;;;12.40;2.90;;;12.10;85.20;;;;;;5016833;28;20018;-66
2023/03/09 10:33:03;;;;;;;8.95;1.90;;;12.20;86.10;;;;;;5033146;28;20026;-65
2023/03/09 10:35:51;;;;;;;5.85;1.63;;;12.20;86.00;;;;;;5023305;28;20021;-65
2023/03/09 10:38:19;;;;;;;8.10;1.67;;;11.90;86.10;;;;;;5026202;28;20427;-66
2023/03/09 10:40:56;;;;;;;8.90;1.77;;;11.80;86.90;;;;;;5016999;28;20033;-66
2023/03/09 10:43:35;;;;;;;6.22;1.45;;;12.10;85.90;;;;;;5018452;28;20124;-65
2023/03/09 10:46:20;;;;;;;7.43;1.88;;;12.10;85.20;;;;;;5016851;28;20029;-65
2023/03/09 10:48:46;;;;;;;;;;;12.30;83.60;;;;;;5018033;28;20034;-65
2023/03/09 10:51:38;;;;;;;8.93;1.80;;;12.60;84.30;;;;;;5017827;28;19909;-65
2023/03/09 10:54:27;;;;;;;8.93;1.65;;;12.30;84.80;;;;;;5023959;28;20030;-65
2023/03/09 10:56:53;;;;;;;8.10;1.65;;;12.40;82.90;;;;;;5035132;28;20049;-65
2023/03/09 10:59:21;;;;;;;7.57;1.58;;;12.80;81.20;;;;;;5019412;28;20050;-66
2023/03/09 11:01:49;;;;;;;10.23;2.17;;;12.40;82.30;;;;;;5036099;28;20041;-65
2023/03/09 11:04:24;;;;;;;8.35;1.75;;;12.80;81.50;;;;;;5036628;28;20163;-65
2023/03/09 11:07:02;;;;;;;5.45;1.80;;;12.90;81.70;;;;;;5036344;28;20025;-65
2023/03/09 11:09:40;;;;;;;6.43;1.70;;;12.70;81.90;;;;;;5037055;28;20087;-66
2023/03/09 11:12:08;;;;;;;7.53;1.95;;;12.80;82.20;;;;;;5021513;28;20419;-66
2023/03/09 11:14:41;;;;;;;6.32;1.67;;;13.00;81.70;;;;;;5016650;28;20052;-65
2023/03/09 11:17:25;;;;;;;7.90;1.70;;;12.60;81.20;;;;;;5016277;28;20040;-65
2023/03/09 11:20:29;;;;;;;6.55;1.92;;;12.80;82.00;;;;;;5036307;28;20449;-66
2023/03/09 11:22:59;;;;;;;8.27;1.42;;;13.30;79.30;;;;;;5032552;28;20568;-66
2023/03/09 11:25:40;;;;;;;5.75;1.48;;;13.10;80.30;;;;;;5024013;28;20057;-66
2023/03/09 11:28:29;;;;;;;9.55;1.95;;;13.30;78.30;;;;;;5019759;28;20147;-66
2023/03/09 11:30:56;;;;;;;7.03;1.50;;;13.00;79.90;;;;;;5016448;28;20097;-66
2023/03/09 11:33:25;;;;;;;8.15;1.63;;;13.00;79.90;;;;;;5016004;28;20300;-65
2023/03/09 11:35:53;;;;;;;8.95;1.83;;;12.70;80.30;;;;;;5016218;28;20079;-65
2023/03/09 11:38:22;;;;;;;6.75;1.70;;;12.60;80.60;;;;;;5016202;28;20022;-64
2023/03/09 11:40:52;;;;;;;7.35;2.25;;;12.40;81.20;;;;;;5016216;28;20029;-64
2023/03/09 11:43:29;;;;;;;5.90;1.42;;;12.10;81.30;;;;;;5016756;28;20064;-64
2023/03/09 11:45:59;;;;;;;10.23;2.22;;;11.90;82.20;;;;;;5020080;28;20026;-65
2023/03/09 11:48:42;;;;;;;6.50;1.77;;;11.60;83.30;;;;;;5019944;28;20091;-67
2023/03/09 11:51:34;;;;;;;8.10;1.63;;;11.60;84.00;;;;;;5031092;28;20422;-65
2023/03/09 11:54:24;;;;;;;6.40;1.60;;;11.60;83.30;;;;;;5033717;28;20025;-65
2023/03/09 11:56:54;;;;;;;5.50;1.55;;;11.70;83.10;;;;;;5038324;28;20318;-65
2023/03/09 11:59:29;;;;;;;8.27;1.80;;;11.80;82.80;;;;;;5039497;28;20041;-66
2023/03/09 12:02:19;;;;;;;4.63;1.40;;;11.70;83.00;;;;;;5039572;28;20022;-65
2023/03/09 12:04:49;;;;;;;7.30;1.95;;;12.40;81.70;;;;;;5035011;28;20026;-65
2023/03/09 12:07:25;;;;;;;8.75;1.40;;;12.90;80.80;;;;;;5019877;28;20080;-65
2023/03/09 12:10:18;;;;;;;9.57;2.15;;;13.10;79.20;;;;;;5019703;28;20028;-65
2023/03/09 12:12:55;;;;;;;6.35;1.40;;;12.90;80.20;;;;;;5022001;28;20791;-65
2023/03/09 12:15:45;;;;;;;8.85;2.13;;;12.80;80.70;;;;;;5025538;28;20049;-65
2023/03/09 12:18:21;;;;;;;9.27;1.70;;;12.80;80.00;;;;;;5039446;28;20048;-65
2023/03/09 12:20:53;;;;;;;6.45;1.52;;;12.80;81.10;;;;;;5024094;28;20232;-65
2023/03/09 12:23:41;;;;;;;8.07;1.30;;;13.00;79.80;;;;;;5019471;28;20056;-65
2023/03/09 12:26:06;;;;;;;7.65;1.48;;;12.80;79.50;;;;;;5019537;28;20026;-64
2023/03/09 12:28:33;;;;;;;7.60;1.52;;;12.60;80.60;;;;;;5021864;28;20037;-65
2023/03/09 12:31:00;;;;;;;8.10;1.63;;;12.30;81.60;;;;;;5034254;28;20029;-65
2023/03/09 12:33:44;;;;;;;6.53;1.52;;;12.30;82.20;;;;;;5039120;28;20037;-65
2023/03/09 12:36:26;;;;;;;5.78;1.35;;;12.30;81.00;;;;;;5034739;28;20034;-65
2023/03/09 12:39:24;;;;;;;7.10;1.60;;;12.30;81.60;;;;;;5019045;28;20030;-65
2023/03/09 12:42:14;;;;;;;6.38;1.23;;;12.60;82.20;;;;;;5017772;28;20038;-65
2023/03/09 12:44:50;;;;;;;7.18;1.80;;;12.50;81.20;;;;;;5019113;28;20423;-65
2023/03/09 12:47:33;;;;;;;6.18;1.40;;;12.40;81.10;;;;;;5019245;28;20352;-66
2023/03/09 12:50:00;;;;;;;6.68;1.70;;;12.50;81.20;;;;;;5021222;28;20030;-65
2023/03/09 12:52:34;;;;;;;7.80;1.60;;;12.60;81.30;;;;;;5018870;28;20022;-65
2023/03/09 12:55:10;;;;;;;4.90;1.48;;;12.80;80.80;;;;;;5018877;28;20030;-65
2023/03/09 12:57:36;;;;;;;4.47;1.20;;;13.00;81.00;;;;;;5017778;28;20323;-65
2023/03/09 13:00:24;;;;;;;5.68;1.33;;;13.20;79.90;;;;;;5019054;28;20050;-64
2023/03/09 13:02:57;;;;;;;5.22;1.35;;;13.10;79.60;;;;;;5038245;28;20034;-65
2023/03/09 13:05:28;;;;;;;;;;;13.10;80.60;;;;;;5018888;28;20066;-65